sensor_id;sensor_type;location;lat;lon;timestamp;temperature;humidity
10441;DHT22;5268;49.346;9.522;2023-09-19T03:10:08;17.40;99.90
10441;DHT22;5268;49.346;9.522;2023-09-19T03:15:10;17.40;99.90
10441;DHT22;5268;49.346;9.522;2023-09-19T03:20:12;17.40;99.90
10441;DHT22;5268;49.346;9.522;2023-09-19T03:25:19;17.40;99.90
10441;DHT22;5268;49.346;9.522;2023-09-19T03:30:23;17.40;99.90
10441;DHT22;5268;49.346;9.522;2023-09-19T03:35:25;17.40;99.90
10441;DHT22;5268;49.346;9.522;2023-09-19T03:40:29;17.40;99.90
10441;DHT22;5268;49.346;9.522;2023-09-19T03:45:31;17.40;99.90
10441;DHT22;5268;49.346;9.522;2023-09-19T03:50:33;17.40;99.90
10441;DHT22;5268;49.346;9.522;2023-09-19T03:55:37;17.40;99.90
10441;DHT22;5268;49.346;9.522;2023-09-19T04:00:39;17.40;99.90
10441;DHT22;5268;49.346;9.522;2023-09-19T04:05:41;17.40;99.90
10441;DHT22;5268;49.346;9.522;2023-09-19T04:10:45;17.40;99.90
10441;DHT22;5268;49.346;9.522;2023-09-19T04:15:47;17.40;99.90
10441;DHT22;5268;49.346;9.522;2023-09-19T04:20:50;17.40;99.90
10441;DHT22;5268;49.346;9.522;2023-09-19T04:25:54;17.40;99.90
10441;DHT22;5268;49.346;9.522;2023-09-19T04:30:57;17.30;99.90
10441;DHT22;5268;49.346;9.522;2023-09-19T04:36:01;17.30;99.90
10441;DHT22;5268;49.346;9.522;2023-09-19T04:41:06;17.30;99.90
10441;DHT22;5268;49.346;9.522;2023-09-19T04:46:08;17.30;99.90
10441;DHT22;5268;49.346;9.522;2023-09-19T04:51:11;17.40;99.90
10441;DHT22;5268;49.346;9.522;2023-09-19T04:56:16;17.30;99.90
10441;DHT22;5268;49.346;9.522;2023-09-19T05:01:19;17.20;99.90
10441;DHT22;5268;49.346;9.522;2023-09-19T05:06:23;17.30;99.90
10441;DHT22;5268;49.346;9.522;2023-09-19T05:11:29;17.20;99.90
10441;DHT22;5268;49.346;9.522;2023-09-19T05:16:32;17.20;99.90
10441;DHT22;5268;49.346;9.522;2023-09-19T05:21:35;17.10;99.90
10441;DHT22;5268;49.346;9.522;2023-09-19T05:26:39;17.10;99.90
10441;DHT22;5268;49.346;9.522;2023-09-19T05:31:42;17.10;99.90
10441;DHT22;5268;49.346;9.522;2023-09-19T05:36:45;17.10;99.90
10441;DHT22;5268;49.346;9.522;2023-09-19T05:41:51;17.20;99.90
10441;DHT22;5268;49.346;9.522;2023-09-19T05:46:54;17.30;99.90
10441;DHT22;5268;49.346;9.522;2023-09-19T05:51:59;17.30;99.90
10441;DHT22;5268;49.346;9.522;2023-09-19T05:57:03;17.40;99.90
10441;DHT22;5268;49.346;9.522;2023-09-19T06:02:05;17.50;99.90
10441;DHT22;5268;49.346;9.522;2023-09-19T06:07:07;17.60;99.90
10441;DHT22;5268;49.346;9.522;2023-09-19T06:12:11;17.70;99.90
10441;DHT22;5268;49.346;9.522;2023-09-19T06:17:19;17.70;99.90
10441;DHT22;5268;49.346;9.522;2023-09-19T06:22:23;17.80;99.90
10441;DHT22;5268;49.346;9.522;2023-09-19T06:27:26;17.80;99.90
10441;DHT22;5268;49.346;9.522;2023-09-19T06:32:30;17.90;99.90
10441;DHT22;5268;49.346;9.522;2023-09-19T06:37:32;17.90;99.90
10441;DHT22;5268;49.346;9.522;2023-09-19T06:42:36;18.00;99.90
10441;DHT22;5268;49.346;9.522;2023-09-19T06:47:38;18.10;99.90
10441;DHT22;5268;49.346;9.522;2023-09-19T06:52:41;18.20;99.90
10441;DHT22;5268;49.346;9.522;2023-09-19T06:57:45;18.30;99.90
10441;DHT22;5268;49.346;9.522;2023-09-19T07:02:55;18.30;99.90
10441;DHT22;5268;49.346;9.522;2023-09-19T07:07:59;18.20;99.90
10441;DHT22;5268;49.346;9.522;2023-09-19T07:13:04;18.30;99.90
10441;DHT22;5268;49.346;9.522;2023-09-19T07:18:07;18.40;99.90
10441;DHT22;5268;49.346;9.522;2023-09-19T07:23:11;18.70;99.90
10441;DHT22;5268;49.346;9.522;2023-09-19T07:28:17;19.00;99.90
10441;DHT22;5268;49.346;9.522;2023-09-19T07:33:19;19.10;99.90
10441;DHT22;5268;49.346;9.522;2023-09-19T07:38:22;19.00;99.90
10441;DHT22;5268;49.346;9.522;2023-09-19T07:43:25;18.80;99.90
10441;DHT22;5268;49.346;9.522;2023-09-19T07:48:28;18.70;99.90
10441;DHT22;5268;49.346;9.522;2023-09-19T07:53:30;18.70;99.90
10441;DHT22;5268;49.346;9.522;2023-09-19T07:58:39;18.80;99.90
10441;DHT22;5268;49.346;9.522;2023-09-19T08:03:44;19.00;99.90
10441;DHT22;5268;49.346;9.522;2023-09-19T08:08:46;19.00;99.90
10441;DHT22;5268;49.346;9.522;2023-09-19T08:13:51;19.00;99.90
10441;DHT22;5268;49.346;9.522;2023-09-19T08:18:53;19.00;99.90
10441;DHT22;5268;49.346;9.522;2023-09-19T08:23:56;19.00;99.90
10441;DHT22;5268;49.346;9.522;2023-09-19T08:28:59;19.10;99.90
10441;DHT22;5268;49.346;9.522;2023-09-19T08:34:05;19.40;99.90
10441;DHT22;5268;49.346;9.522;2023-09-19T08:39:07;19.70;99.90
10441;DHT22;5268;49.346;9.522;2023-09-19T08:44:10;19.90;99.90
10441;DHT22;5268;49.346;9.522;2023-09-19T08:49:19;20.10;99.90
10441;DHT22;5268;49.346;9.522;2023-09-19T08:54:25;20.30;99.90
10441;DHT22;5268;49.346;9.522;2023-09-19T08:59:32;20.30;99.90
10441;DHT22;5268;49.346;9.522;2023-09-19T09:04:35;20.30;99.90
10441;DHT22;5268;49.346;9.522;2023-09-19T09:09:38;20.20;99.90
10441;DHT22;5268;49.346;9.522;2023-09-19T09:14:45;20.30;99.90
10441;DHT22;5268;49.346;9.522;2023-09-19T09:19:52;20.30;99.90
10441;DHT22;5268;49.346;9.522;2023-09-19T09:24:55;20.10;99.90
10441;DHT22;5268;49.346;9.522;2023-09-19T09:30:00;19.90;99.90
10441;DHT22;5268;49.346;9.522;2023-09-19T09:35:07;19.90;99.90
10441;DHT22;5268;49.346;9.522;2023-09-19T09:40:10;19.90;99.90
10441;DHT22;5268;49.346;9.522;2023-09-19T09:45:38;20.00;99.90
10441;DHT22;5268;49.346;9.522;2023-09-19T09:50:49;20.10;99.90
10441;DHT22;5268;49.346;9.522;2023-09-19T09:56:04;20.20;99.90
10441;DHT22;5268;49.346;9.522;2023-09-19T10:01:11;20.20;99.90
10441;DHT22;5268;49.346;9.522;2023-09-19T10:06:16;20.10;99.90
10441;DHT22;5268;49.346;9.522;2023-09-19T10:11:28;20.30;99.90
10441;DHT22;5268;49.346;9.522;2023-09-19T10:16:34;20.70;99.90
10441;DHT22;5268;49.346;9.522;2023-09-19T10:21:38;20.70;99.90
10441;DHT22;5268;49.346;9.522;2023-09-19T10:26:41;20.80;99.90
10441;DHT22;5268;49.346;9.522;2023-09-19T10:31:47;20.90;99.90
10441;DHT22;5268;49.346;9.522;2023-09-19T10:36:51;21.00;99.90
10441;DHT22;5268;49.346;9.522;2023-09-19T10:41:57;21.10;99.90
10441;DHT22;5268;49.346;9.522;2023-09-19T10:47:07;21.30;99.90
10441;DHT22;5268;49.346;9.522;2023-09-19T10:52:10;21.50;99.90
10441;DHT22;5268;49.346;9.522;2023-09-19T10:57:19;21.60;99.90
10441;DHT22;5268;49.346;9.522;2023-09-19T11:02:23;21.80;99.90
10441;DHT22;5268;49.346;9.522;2023-09-19T11:07:26;22.10;99.90
10441;DHT22;5268;49.346;9.522;2023-09-19T11:12:49;22.20;99.90
10441;DHT22;5268;49.346;9.522;2023-09-19T11:17:52;22.30;99.90
10441;DHT22;5268;49.346;9.522;2023-09-19T11:23:20;22.40;99.90
10441;DHT22;5268;49.346;9.522;2023-09-19T11:28:33;22.70;99.90
10441;DHT22;5268;49.346;9.522;2023-09-19T11:33:38;23.00;99.90
10441;DHT22;5268;49.346;9.522;2023-09-19T11:39:02;23.20;99.90
10441;DHT22;5268;49.346;9.522;2023-09-19T11:44:31;23.20;99.90
10441;DHT22;5268;49.346;9.522;2023-09-19T11:49:35;23.40;99.90
10441;DHT22;5268;49.346;9.522;2023-09-19T11:54:43;23.50;99.90
10441;DHT22;5268;49.346;9.522;2023-09-19T11:59:48;23.40;99.90
10441;DHT22;5268;49.346;9.522;2023-09-19T12:04:53;23.40;99.90
10441;DHT22;5268;49.346;9.522;2023-09-19T12:10:03;23.50;99.90
10441;DHT22;5268;49.346;9.522;2023-09-19T12:15:07;23.50;99.90
10441;DHT22;5268;49.346;9.522;2023-09-19T12:20:11;23.20;99.90
10441;DHT22;5268;49.346;9.522;2023-09-19T12:25:15;23.00;99.90
10441;DHT22;5268;49.346;9.522;2023-09-19T12:30:18;22.90;99.90
10441;DHT22;5268;49.346;9.522;2023-09-19T12:35:28;22.90;99.90
10441;DHT22;5268;49.346;9.522;2023-09-19T12:40:31;23.00;99.90
10441;DHT22;5268;49.346;9.522;2023-09-19T12:45:36;23.20;99.90
10441;DHT22;5268;49.346;9.522;2023-09-19T12:51:02;23.20;99.90
10441;DHT22;5268;49.346;9.522;2023-09-19T12:56:06;23.20;99.90
10441;DHT22;5268;49.346;9.522;2023-09-19T13:01:14;23.20;99.90
10441;DHT22;5268;49.346;9.522;2023-09-19T13:06:35;23.30;99.90
10441;DHT22;5268;49.346;9.522;2023-09-19T13:11:41;23.30;99.90
10441;DHT22;5268;49.346;9.522;2023-09-19T13:16:59;23.40;99.90
10441;DHT22;5268;49.346;9.522;2023-09-19T13:27:24;23.40;99.90
10441;DHT22;5268;49.346;9.522;2023-09-19T13:32:28;23.20;99.90
10441;DHT22;5268;49.346;9.522;2023-09-19T13:37:32;22.90;99.90
10441;DHT22;5268;49.346;9.522;2023-09-19T13:42:35;22.90;99.90
10441;DHT22;5268;49.346;9.522;2023-09-19T13:47:37;22.90;99.90
10441;DHT22;5268;49.346;9.522;2023-09-19T13:52:41;22.90;99.90
10441;DHT22;5268;49.346;9.522;2023-09-19T13:57:43;22.90;99.90
10441;DHT22;5268;49.346;9.522;2023-09-19T14:02:45;23.00;99.90
10441;DHT22;5268;49.346;9.522;2023-09-19T14:07:50;22.90;99.90
10441;DHT22;5268;49.346;9.522;2023-09-19T14:12:52;22.90;99.90
10441;DHT22;5268;49.346;9.522;2023-09-19T14:17:55;22.90;99.90
10441;DHT22;5268;49.346;9.522;2023-09-19T14:22:59;22.90;99.90
10441;DHT22;5268;49.346;9.522;2023-09-19T14:28:02;22.90;99.90
10441;DHT22;5268;49.346;9.522;2023-09-19T14:33:04;22.90;99.90
10441;DHT22;5268;49.346;9.522;2023-09-19T14:38:08;22.90;99.90
10441;DHT22;5268;49.346;9.522;2023-09-19T14:43:10;22.80;99.90
10441;DHT22;5268;49.346;9.522;2023-09-19T14:48:12;22.70;99.90
10441;DHT22;5268;49.346;9.522;2023-09-19T14:53:15;22.70;99.90
10441;DHT22;5268;49.346;9.522;2023-09-19T14:58:17;22.70;99.90
10441;DHT22;5268;49.346;9.522;2023-09-19T15:03:21;22.80;99.90
10441;DHT22;5268;49.346;9.522;2023-09-19T15:08:25;22.70;99.90
10441;DHT22;5268;49.346;9.522;2023-09-19T15:13:27;22.70;99.90
10441;DHT22;5268;49.346;9.522;2023-09-19T15:18:30;22.80;99.90
10441;DHT22;5268;49.346;9.522;2023-09-19T15:23:36;22.80;99.90
10441;DHT22;5268;49.346;9.522;2023-09-19T15:28:39;22.80;99.90
10441;DHT22;5268;49.346;9.522;2023-09-19T15:33:41;22.80;99.90
10441;DHT22;5268;49.346;9.522;2023-09-19T15:38:58;22.70;99.90
10441;DHT22;5268;49.346;9.522;2023-09-19T15:44:02;22.70;99.90
10441;DHT22;5268;49.346;9.522;2023-09-19T15:49:04;22.50;99.90
10441;DHT22;5268;49.346;9.522;2023-09-19T15:54:11;22.40;99.90
10441;DHT22;5268;49.346;9.522;2023-09-19T15:59:14;22.40;99.90
10441;DHT22;5268;49.346;9.522;2023-09-19T16:04:16;22.30;99.90
10441;DHT22;5268;49.346;9.522;2023-09-19T16:09:20;22.30;99.90
10441;DHT22;5268;49.346;9.522;2023-09-19T16:14:22;22.30;99.90
10441;DHT22;5268;49.346;9.522;2023-09-19T16:19:24;22.30;99.90
10441;DHT22;5268;49.346;9.522;2023-09-19T16:24:28;22.20;99.90
10441;DHT22;5268;49.346;9.522;2023-09-19T16:29:30;22.20;99.90
10441;DHT22;5268;49.346;9.522;2023-09-19T16:34:32;22.10;99.90
10441;DHT22;5268;49.346;9.522;2023-09-19T16:39:36;22.10;99.90
10441;DHT22;5268;49.346;9.522;2023-09-19T16:44:40;22.00;99.90
10441;DHT22;5268;49.346;9.522;2023-09-19T16:49:43;22.00;99.90
10441;DHT22;5268;49.346;9.522;2023-09-19T16:54:50;21.90;99.90
10441;DHT22;5268;49.346;9.522;2023-09-19T16:59:52;21.90;99.90
10441;DHT22;5268;49.346;9.522;2023-09-19T17:04:54;21.90;99.90
10441;DHT22;5268;49.346;9.522;2023-09-19T17:09:58;21.70;99.90
10441;DHT22;5268;49.346;9.522;2023-09-19T17:15:02;21.70;99.90
10441;DHT22;5268;49.346;9.522;2023-09-19T17:20:05;21.50;99.90
10441;DHT22;5268;49.346;9.522;2023-09-19T17:25:08;21.40;99.90
10441;DHT22;5268;49.346;9.522;2023-09-19T17:30:14;21.20;99.90
10441;DHT22;5268;49.346;9.522;2023-09-19T17:35:16;21.10;99.90
10441;DHT22;5268;49.346;9.522;2023-09-19T17:40:20;20.90;99.90
10441;DHT22;5268;49.346;9.522;2023-09-19T17:45:23;20.80;99.90
10441;DHT22;5268;49.346;9.522;2023-09-19T17:50:25;20.60;99.90
10441;DHT22;5268;49.346;9.522;2023-09-19T17:55:30;20.50;99.90
10441;DHT22;5268;49.346;9.522;2023-09-19T18:00:32;20.30;99.90
10441;DHT22;5268;49.346;9.522;2023-09-19T18:05:43;20.20;99.90
10441;DHT22;5268;49.346;9.522;2023-09-19T18:10:46;20.00;99.90
10441;DHT22;5268;49.346;9.522;2023-09-19T18:15:48;19.90;99.90
10441;DHT22;5268;49.346;9.522;2023-09-19T18:20:50;19.70;99.90
10441;DHT22;5268;49.346;9.522;2023-09-19T18:25:57;19.60;99.90
10441;DHT22;5268;49.346;9.522;2023-09-19T18:30:59;19.50;99.90
10441;DHT22;5268;49.346;9.522;2023-09-19T18:36:07;19.30;99.90
10441;DHT22;5268;49.346;9.522;2023-09-19T18:41:13;19.20;99.90
10441;DHT22;5268;49.346;9.522;2023-09-19T18:46:16;19.10;99.90
10441;DHT22;5268;49.346;9.522;2023-09-19T18:51:19;19.00;99.90
10441;DHT22;5268;49.346;9.522;2023-09-19T18:56:23;18.90;99.90
10441;DHT22;5268;49.346;9.522;2023-09-19T19:01:25;18.80;99.90
10441;DHT22;5268;49.346;9.522;2023-09-19T19:06:27;18.70;99.90
10441;DHT22;5268;49.346;9.522;2023-09-19T19:11:32;18.50;99.90
10441;DHT22;5268;49.346;9.522;2023-09-19T19:16:34;18.40;99.90
10441;DHT22;5268;49.346;9.522;2023-09-19T19:21:38;18.30;99.90
10441;DHT22;5268;49.346;9.522;2023-09-19T19:26:41;18.20;99.90
10441;DHT22;5268;49.346;9.522;2023-09-19T19:31:44;18.10;99.90
10441;DHT22;5268;49.346;9.522;2023-09-19T19:36:46;18.00;99.90
10441;DHT22;5268;49.346;9.522;2023-09-19T19:41:50;17.90;99.90
10441;DHT22;5268;49.346;9.522;2023-09-19T19:46:52;17.80;99.90
10441;DHT22;5268;49.346;9.522;2023-09-19T19:51:54;17.70;99.90
10441;DHT22;5268;49.346;9.522;2023-09-19T19:56:58;17.60;99.90
10441;DHT22;5268;49.346;9.522;2023-09-19T20:02:00;17.60;99.90
10441;DHT22;5268;49.346;9.522;2023-09-19T20:07:03;17.50;99.90
10441;DHT22;5268;49.346;9.522;2023-09-19T20:12:07;17.40;99.90
10441;DHT22;5268;49.346;9.522;2023-09-19T20:17:10;17.30;99.90
10441;DHT22;5268;49.346;9.522;2023-09-19T20:22:13;17.20;99.90
10441;DHT22;5268;49.346;9.522;2023-09-19T20:27:16;17.20;99.90
10441;DHT22;5268;49.346;9.522;2023-09-19T20:32:18;17.10;99.90
10441;DHT22;5268;49.346;9.522;2023-09-19T20:37:20;17.00;99.90
10441;DHT22;5268;49.346;9.522;2023-09-19T20:42:23;16.90;99.90
10441;DHT22;5268;49.346;9.522;2023-09-19T20:47:25;16.80;99.90
10441;DHT22;5268;49.346;9.522;2023-09-19T20:52:28;16.80;99.90
10441;DHT22;5268;49.346;9.522;2023-09-19T20:57:31;16.70;99.90
10441;DHT22;5268;49.346;9.522;2023-09-19T21:02:34;16.60;99.90
10441;DHT22;5268;49.346;9.522;2023-09-19T21:07:36;16.50;99.90
10441;DHT22;5268;49.346;9.522;2023-09-19T21:12:40;16.40;99.90
10441;DHT22;5268;49.346;9.522;2023-09-19T21:17:42;16.40;99.90
10441;DHT22;5268;49.346;9.522;2023-09-19T21:22:44;16.30;99.90
10441;DHT22;5268;49.346;9.522;2023-09-19T21:27:48;16.30;99.90
10441;DHT22;5268;49.346;9.522;2023-09-19T21:32:50;16.20;99.90
10441;DHT22;5268;49.346;9.522;2023-09-19T21:37:52;16.20;99.90
10441;DHT22;5268;49.346;9.522;2023-09-19T21:42:55;16.10;99.90
10441;DHT22;5268;49.346;9.522;2023-09-19T21:47:57;16.00;99.90
10441;DHT22;5268;49.346;9.522;2023-09-19T21:52:59;15.90;99.90
